sensor_id;sensor_type;location;lat;lon;timestamp;temperature;humidity
55261;DHT22;41123;51.416;6.758;2022-07-09T00:01:36;19.20;99.90
55261;DHT22;41123;51.416;6.758;2022-07-09T00:04:02;21.20;99.90
55261;DHT22;41123;51.416;6.758;2022-07-09T00:06:27;19.20;99.90
55261;DHT22;41123;51.416;6.758;2022-07-09T00:08:54;19.20;99.90
55261;DHT22;41123;51.416;6.758;2022-07-09T00:11:19;19.20;99.90
55261;DHT22;41123;51.416;6.758;2022-07-09T00:13:45;19.70;99.90
55261;DHT22;41123;51.416;6.758;2022-07-09T00:16:10;20.00;99.90
55261;DHT22;41123;51.416;6.758;2022-07-09T00:18:36;19.10;99.90
55261;DHT22;41123;51.416;6.758;2022-07-09T00:21:02;19.10;99.90
55261;DHT22;41123;51.416;6.758;2022-07-09T00:23:27;19.00;99.90
55261;DHT22;41123;51.416;6.758;2022-07-09T00:25:53;19.10;99.90
55261;DHT22;41123;51.416;6.758;2022-07-09T00:28:19;19.00;99.90
55261;DHT22;41123;51.416;6.758;2022-07-09T00:30:44;19.00;99.90
55261;DHT22;41123;51.416;6.758;2022-07-09T00:33:10;19.00;99.90
55261;DHT22;41123;51.416;6.758;2022-07-09T00:35:36;18.90;99.90
55261;DHT22;41123;51.416;6.758;2022-07-09T00:38:01;19.00;99.90
55261;DHT22;41123;51.416;6.758;2022-07-09T00:40:27;19.00;99.90
55261;DHT22;41123;51.416;6.758;2022-07-09T00:42:53;18.90;99.90
55261;DHT22;41123;51.416;6.758;2022-07-09T00:45:18;19.00;99.90
55261;DHT22;41123;51.416;6.758;2022-07-09T00:47:44;18.90;99.90
55261;DHT22;41123;51.416;6.758;2022-07-09T00:50:10;19.60;99.90
55261;DHT22;41123;51.416;6.758;2022-07-09T00:52:37;18.90;99.90
55261;DHT22;41123;51.416;6.758;2022-07-09T00:55:03;18.90;99.90
55261;DHT22;41123;51.416;6.758;2022-07-09T00:57:30;18.90;99.90
55261;DHT22;41123;51.416;6.758;2022-07-09T00:59:57;18.90;99.90
55261;DHT22;41123;51.416;6.758;2022-07-09T01:02:23;18.90;99.90
55261;DHT22;41123;51.416;6.758;2022-07-09T01:04:48;18.90;99.90
55261;DHT22;41123;51.416;6.758;2022-07-09T01:07:14;18.90;99.90
55261;DHT22;41123;51.416;6.758;2022-07-09T01:09:40;18.90;99.90
55261;DHT22;41123;51.416;6.758;2022-07-09T01:12:07;18.90;99.90
55261;DHT22;41123;51.416;6.758;2022-07-09T01:14:33;18.90;99.90
55261;DHT22;41123;51.416;6.758;2022-07-09T01:17:04;18.90;99.90
55261;DHT22;41123;51.416;6.758;2022-07-09T01:19:32;18.90;99.90
55261;DHT22;41123;51.416;6.758;2022-07-09T01:21:58;18.90;99.90
55261;DHT22;41123;51.416;6.758;2022-07-09T01:24:24;19.60;99.90
55261;DHT22;41123;51.416;6.758;2022-07-09T01:26:52;18.80;99.90
55261;DHT22;41123;51.416;6.758;2022-07-09T01:29:18;18.80;99.90
55261;DHT22;41123;51.416;6.758;2022-07-09T01:31:43;18.70;99.90
55261;DHT22;41123;51.416;6.758;2022-07-09T01:34:09;18.70;99.90
55261;DHT22;41123;51.416;6.758;2022-07-09T01:36:35;19.60;99.90
55261;DHT22;41123;51.416;6.758;2022-07-09T01:39:00;18.70;99.90
55261;DHT22;41123;51.416;6.758;2022-07-09T01:41:26;18.70;99.90
55261;DHT22;41123;51.416;6.758;2022-07-09T01:43:51;18.70;99.90
55261;DHT22;41123;51.416;6.758;2022-07-09T01:46:17;18.70;99.90
55261;DHT22;41123;51.416;6.758;2022-07-09T01:52:05;18.90;99.90
55261;DHT22;41123;51.416;6.758;2022-07-09T01:54:31;18.90;99.90
55261;DHT22;41123;51.416;6.758;2022-07-09T01:56:56;19.00;99.90
55261;DHT22;41123;51.416;6.758;2022-07-09T01:59:22;19.00;99.90
55261;DHT22;41123;51.416;6.758;2022-07-09T02:01:47;19.40;99.90
55261;DHT22;41123;51.416;6.758;2022-07-09T02:04:13;19.40;99.90
55261;DHT22;41123;51.416;6.758;2022-07-09T02:06:39;19.50;99.90
55261;DHT22;41123;51.416;6.758;2022-07-09T02:09:04;19.10;99.90
55261;DHT22;41123;51.416;6.758;2022-07-09T02:11:30;19.10;99.90
55261;DHT22;41123;51.416;6.758;2022-07-09T02:13:55;19.10;99.90
55261;DHT22;41123;51.416;6.758;2022-07-09T02:16:21;19.20;99.90
55261;DHT22;41123;51.416;6.758;2022-07-09T02:18:46;19.20;99.90
55261;DHT22;41123;51.416;6.758;2022-07-09T02:21:12;20.20;99.90
55261;DHT22;41123;51.416;6.758;2022-07-09T02:23:38;19.30;99.90
55261;DHT22;41123;51.416;6.758;2022-07-09T02:26:03;20.90;99.90
55261;DHT22;41123;51.416;6.758;2022-07-09T02:28:29;19.30;99.90
55261;DHT22;41123;51.416;6.758;2022-07-09T02:30:54;19.30;99.90
55261;DHT22;41123;51.416;6.758;2022-07-09T02:33:20;20.90;99.90
55261;DHT22;41123;51.416;6.758;2022-07-09T02:35:46;19.20;99.90
55261;DHT22;41123;51.416;6.758;2022-07-09T02:38:12;19.20;99.90
55261;DHT22;41123;51.416;6.758;2022-07-09T02:40:37;19.20;99.90
55261;DHT22;41123;51.416;6.758;2022-07-09T02:43:03;19.20;99.90
55261;DHT22;41123;51.416;6.758;2022-07-09T02:45:28;19.20;99.90
55261;DHT22;41123;51.416;6.758;2022-07-09T02:47:54;19.90;99.90
55261;DHT22;41123;51.416;6.758;2022-07-09T02:50:20;19.50;99.90
55261;DHT22;41123;51.416;6.758;2022-07-09T02:52:45;19.20;99.90
55261;DHT22;41123;51.416;6.758;2022-07-09T02:55:11;20.20;99.90
55261;DHT22;41123;51.416;6.758;2022-07-09T02:57:36;19.30;99.90
55261;DHT22;41123;51.416;6.758;2022-07-09T03:00:03;20.60;99.90
55261;DHT22;41123;51.416;6.758;2022-07-09T03:02:29;19.30;99.90
55261;DHT22;41123;51.416;6.758;2022-07-09T03:04:54;19.90;99.90
55261;DHT22;41123;51.416;6.758;2022-07-09T03:07:20;19.70;99.90
55261;DHT22;41123;51.416;6.758;2022-07-09T03:09:46;20.70;99.90
55261;DHT22;41123;51.416;6.758;2022-07-09T03:12:12;19.40;99.90
55261;DHT22;41123;51.416;6.758;2022-07-09T03:14:37;19.10;99.90
55261;DHT22;41123;51.416;6.758;2022-07-09T03:17:03;20.00;99.90
55261;DHT22;41123;51.416;6.758;2022-07-09T03:19:29;19.20;99.90
55261;DHT22;41123;51.416;6.758;2022-07-09T03:21:54;19.20;99.90
55261;DHT22;41123;51.416;6.758;2022-07-09T03:24:21;19.20;99.90
55261;DHT22;41123;51.416;6.758;2022-07-09T03:26:46;19.20;99.90
55261;DHT22;41123;51.416;6.758;2022-07-09T03:29:12;19.40;99.90
55261;DHT22;41123;51.416;6.758;2022-07-09T03:31:38;19.20;99.90
55261;DHT22;41123;51.416;6.758;2022-07-09T03:34:03;19.20;99.90
55261;DHT22;41123;51.416;6.758;2022-07-09T03:36:31;19.20;99.90
55261;DHT22;41123;51.416;6.758;2022-07-09T03:38:57;19.10;99.90
55261;DHT22;41123;51.416;6.758;2022-07-09T03:41:22;19.10;99.90
55261;DHT22;41123;51.416;6.758;2022-07-09T03:43:48;19.10;99.90
55261;DHT22;41123;51.416;6.758;2022-07-09T03:46:14;19.10;99.90
55261;DHT22;41123;51.416;6.758;2022-07-09T03:48:39;19.10;99.90
55261;DHT22;41123;51.416;6.758;2022-07-09T03:51:06;19.10;99.90
55261;DHT22;41123;51.416;6.758;2022-07-09T03:53:32;19.00;99.90
55261;DHT22;41123;51.416;6.758;2022-07-09T03:55:58;19.40;99.90
55261;DHT22;41123;51.416;6.758;2022-07-09T03:58:23;19.00;99.90
55261;DHT22;41123;51.416;6.758;2022-07-09T04:00:49;18.90;99.90
55261;DHT22;41123;51.416;6.758;2022-07-09T04:03:15;18.90;99.90
55261;DHT22;41123;51.416;6.758;2022-07-09T04:05:40;18.90;99.90
55261;DHT22;41123;51.416;6.758;2022-07-09T04:08:07;18.90;99.90
55261;DHT22;41123;51.416;6.758;2022-07-09T04:10:32;18.80;99.90
55261;DHT22;41123;51.416;6.758;2022-07-09T04:12:58;18.70;99.90
55261;DHT22;41123;51.416;6.758;2022-07-09T04:15:23;18.70;99.90
55261;DHT22;41123;51.416;6.758;2022-07-09T04:17:49;18.70;99.90
55261;DHT22;41123;51.416;6.758;2022-07-09T04:20:15;18.70;99.90
55261;DHT22;41123;51.416;6.758;2022-07-09T04:22:40;18.70;99.90
55261;DHT22;41123;51.416;6.758;2022-07-09T04:25:06;18.70;99.90
55261;DHT22;41123;51.416;6.758;2022-07-09T04:27:32;18.70;99.90
55261;DHT22;41123;51.416;6.758;2022-07-09T04:29:57;18.80;99.90
55261;DHT22;41123;51.416;6.758;2022-07-09T04:32:23;19.10;99.90
55261;DHT22;41123;51.416;6.758;2022-07-09T04:34:49;18.70;99.90
55261;DHT22;41123;51.416;6.758;2022-07-09T04:37:14;19.30;99.90
55261;DHT22;41123;51.416;6.758;2022-07-09T04:39:40;18.80;99.90
55261;DHT22;41123;51.416;6.758;2022-07-09T04:42:05;18.90;99.90
55261;DHT22;41123;51.416;6.758;2022-07-09T04:44:31;18.80;99.90
55261;DHT22;41123;51.416;6.758;2022-07-09T04:46:57;18.90;99.90
55261;DHT22;41123;51.416;6.758;2022-07-09T04:49:22;18.90;99.90
55261;DHT22;41123;51.416;6.758;2022-07-09T04:51:49;19.30;99.90
55261;DHT22;41123;51.416;6.758;2022-07-09T04:54:15;18.80;99.90
55261;DHT22;41123;51.416;6.758;2022-07-09T04:56:41;18.90;99.90
55261;DHT22;41123;51.416;6.758;2022-07-09T04:59:06;18.90;99.90
55261;DHT22;41123;51.416;6.758;2022-07-09T05:01:32;19.00;99.90
55261;DHT22;41123;51.416;6.758;2022-07-09T05:03:57;18.90;99.90
55261;DHT22;41123;51.416;6.758;2022-07-09T05:06:24;18.80;99.90
55261;DHT22;41123;51.416;6.758;2022-07-09T05:08:50;18.90;99.90
55261;DHT22;41123;51.416;6.758;2022-07-09T05:11:16;18.90;99.90
55261;DHT22;41123;51.416;6.758;2022-07-09T05:13:42;18.90;99.90
55261;DHT22;41123;51.416;6.758;2022-07-09T05:16:08;18.90;99.90
55261;DHT22;41123;51.416;6.758;2022-07-09T05:18:35;20.10;99.90
55261;DHT22;41123;51.416;6.758;2022-07-09T05:21:00;19.00;99.90
55261;DHT22;41123;51.416;6.758;2022-07-09T05:23:26;19.10;99.90
55261;DHT22;41123;51.416;6.758;2022-07-09T05:25:52;19.30;99.90
55261;DHT22;41123;51.416;6.758;2022-07-09T05:28:18;19.40;99.90
55261;DHT22;41123;51.416;6.758;2022-07-09T05:30:44;19.50;99.90
55261;DHT22;41123;51.416;6.758;2022-07-09T05:33:09;19.70;99.90
55261;DHT22;41123;51.416;6.758;2022-07-09T05:35:35;19.70;99.90
55261;DHT22;41123;51.416;6.758;2022-07-09T05:38:01;19.90;99.90
55261;DHT22;41123;51.416;6.758;2022-07-09T05:40:26;20.00;99.90
55261;DHT22;41123;51.416;6.758;2022-07-09T05:42:52;20.20;99.90
55261;DHT22;41123;51.416;6.758;2022-07-09T05:45:18;20.10;99.90
55261;DHT22;41123;51.416;6.758;2022-07-09T05:47:44;20.30;99.90
55261;DHT22;41123;51.416;6.758;2022-07-09T05:50:10;20.30;99.90
55261;DHT22;41123;51.416;6.758;2022-07-09T05:52:35;20.40;99.90
55261;DHT22;41123;51.416;6.758;2022-07-09T05:55:02;20.50;99.90
55261;DHT22;41123;51.416;6.758;2022-07-09T05:57:29;20.60;99.90
55261;DHT22;41123;51.416;6.758;2022-07-09T05:59:54;20.50;99.90
55261;DHT22;41123;51.416;6.758;2022-07-09T06:02:21;20.70;99.90
55261;DHT22;41123;51.416;6.758;2022-07-09T06:04:47;23.10;99.90
55261;DHT22;41123;51.416;6.758;2022-07-09T06:07:13;20.80;99.90
55261;DHT22;41123;51.416;6.758;2022-07-09T06:09:39;21.00;99.90
55261;DHT22;41123;51.416;6.758;2022-07-09T06:12:04;21.00;99.90
55261;DHT22;41123;51.416;6.758;2022-07-09T06:14:30;21.10;99.90
55261;DHT22;41123;51.416;6.758;2022-07-09T06:16:56;21.10;99.90
55261;DHT22;41123;51.416;6.758;2022-07-09T06:19:22;21.20;99.90
55261;DHT22;41123;51.416;6.758;2022-07-09T06:21:48;21.40;99.90
55261;DHT22;41123;51.416;6.758;2022-07-09T06:24:14;21.60;99.90
55261;DHT22;41123;51.416;6.758;2022-07-09T06:26:39;21.60;99.90
55261;DHT22;41123;51.416;6.758;2022-07-09T06:29:05;21.50;99.90
55261;DHT22;41123;51.416;6.758;2022-07-09T06:31:30;21.40;99.90
55261;DHT22;41123;51.416;6.758;2022-07-09T06:33:56;21.40;99.90
55261;DHT22;41123;51.416;6.758;2022-07-09T06:36:23;21.40;99.90
55261;DHT22;41123;51.416;6.758;2022-07-09T06:38:49;21.40;99.90
55261;DHT22;41123;51.416;6.758;2022-07-09T06:41:33;21.60;99.90
55261;DHT22;41123;51.416;6.758;2022-07-09T06:43:59;21.60;99.90
55261;DHT22;41123;51.416;6.758;2022-07-09T06:46:24;21.60;99.90
55261;DHT22;41123;51.416;6.758;2022-07-09T06:48:50;21.70;99.90
55261;DHT22;41123;51.416;6.758;2022-07-09T06:51:15;21.60;99.90
55261;DHT22;41123;51.416;6.758;2022-07-09T06:53:41;21.60;99.90
55261;DHT22;41123;51.416;6.758;2022-07-09T06:56:06;21.50;99.90
55261;DHT22;41123;51.416;6.758;2022-07-09T06:58:32;21.50;99.90
55261;DHT22;41123;51.416;6.758;2022-07-09T07:00:58;21.40;99.90
55261;DHT22;41123;51.416;6.758;2022-07-09T07:03:24;21.30;99.90
55261;DHT22;41123;51.416;6.758;2022-07-09T07:05:49;21.40;99.90
55261;DHT22;41123;51.416;6.758;2022-07-09T07:08:15;21.50;99.90
55261;DHT22;41123;51.416;6.758;2022-07-09T07:10:40;21.30;99.90
55261;DHT22;41123;51.416;6.758;2022-07-09T07:13:06;21.30;99.90
55261;DHT22;41123;51.416;6.758;2022-07-09T07:15:31;21.10;99.90
55261;DHT22;41123;51.416;6.758;2022-07-09T07:17:57;21.00;99.90
55261;DHT22;41123;51.416;6.758;2022-07-09T07:20:23;21.40;99.90
55261;DHT22;41123;51.416;6.758;2022-07-09T07:22:50;21.60;99.90
55261;DHT22;41123;51.416;6.758;2022-07-09T07:25:16;21.90;99.90
55261;DHT22;41123;51.416;6.758;2022-07-09T07:27:42;23.30;99.90
55261;DHT22;41123;51.416;6.758;2022-07-09T07:30:08;22.30;99.90
55261;DHT22;41123;51.416;6.758;2022-07-09T07:32:33;22.40;99.90
55261;DHT22;41123;51.416;6.758;2022-07-09T07:34:59;22.30;99.90
55261;DHT22;41123;51.416;6.758;2022-07-09T07:37:24;22.20;99.90
55261;DHT22;41123;51.416;6.758;2022-07-09T07:39:50;22.10;99.90
55261;DHT22;41123;51.416;6.758;2022-07-09T07:42:16;22.10;99.90
55261;DHT22;41123;51.416;6.758;2022-07-09T07:44:42;22.10;99.90
55261;DHT22;41123;51.416;6.758;2022-07-09T07:47:08;22.00;99.90
55261;DHT22;41123;51.416;6.758;2022-07-09T07:49:33;21.80;99.90
55261;DHT22;41123;51.416;6.758;2022-07-09T07:51:59;22.10;99.90
55261;DHT22;41123;51.416;6.758;2022-07-09T07:54:25;21.90;99.90
55261;DHT22;41123;51.416;6.758;2022-07-09T07:56:50;22.20;99.90
55261;DHT22;41123;51.416;6.758;2022-07-09T07:59:17;22.60;99.90
55261;DHT22;41123;51.416;6.758;2022-07-09T08:01:43;22.60;99.90
55261;DHT22;41123;51.416;6.758;2022-07-09T08:04:08;22.70;99.90
55261;DHT22;41123;51.416;6.758;2022-07-09T08:06:34;22.90;99.90
55261;DHT22;41123;51.416;6.758;2022-07-09T08:09:02;22.90;99.90
55261;DHT22;41123;51.416;6.758;2022-07-09T08:11:27;22.90;99.90
55261;DHT22;41123;51.416;6.758;2022-07-09T08:13:53;22.80;99.90
55261;DHT22;41123;51.416;6.758;2022-07-09T08:16:18;23.00;99.90
55261;DHT22;41123;51.416;6.758;2022-07-09T08:18:45;23.20;99.90
55261;DHT22;41123;51.416;6.758;2022-07-09T08:21:11;23.40;99.90
55261;DHT22;41123;51.416;6.758;2022-07-09T08:23:38;23.40;99.90
55261;DHT22;41123;51.416;6.758;2022-07-09T08:26:24;23.40;99.90
55261;DHT22;41123;51.416;6.758;2022-07-09T08:28:50;23.20;99.90
55261;DHT22;41123;51.416;6.758;2022-07-09T08:31:17;23.00;99.90
55261;DHT22;41123;51.416;6.758;2022-07-09T08:33:43;22.90;99.90
55261;DHT22;41123;51.416;6.758;2022-07-09T08:36:09;23.10;99.90
55261;DHT22;41123;51.416;6.758;2022-07-09T08:38:34;23.20;99.90
55261;DHT22;41123;51.416;6.758;2022-07-09T08:41:00;23.00;99.90
55261;DHT22;41123;51.416;6.758;2022-07-09T08:43:27;22.70;99.90
55261;DHT22;41123;51.416;6.758;2022-07-09T08:45:54;22.60;99.90
55261;DHT22;41123;51.416;6.758;2022-07-09T08:48:20;22.70;99.90
55261;DHT22;41123;51.416;6.758;2022-07-09T08:50:48;22.70;99.90
55261;DHT22;41123;51.416;6.758;2022-07-09T08:53:16;22.50;99.90
55261;DHT22;41123;51.416;6.758;2022-07-09T08:55:42;22.60;99.90
55261;DHT22;41123;51.416;6.758;2022-07-09T08:58:10;24.10;99.90
55261;DHT22;41123;51.416;6.758;2022-07-09T09:00:37;22.70;99.90
55261;DHT22;41123;51.416;6.758;2022-07-09T09:03:02;23.00;99.90
55261;DHT22;41123;51.416;6.758;2022-07-09T09:05:28;23.00;99.90
55261;DHT22;41123;51.416;6.758;2022-07-09T09:07:53;23.10;99.90
55261;DHT22;41123;51.416;6.758;2022-07-09T09:10:27;23.50;99.90
55261;DHT22;41123;51.416;6.758;2022-07-09T09:13:00;23.90;99.90
55261;DHT22;41123;51.416;6.758;2022-07-09T09:15:27;23.90;99.90
55261;DHT22;41123;51.416;6.758;2022-07-09T09:17:53;23.90;99.90
55261;DHT22;41123;51.416;6.758;2022-07-09T09:20:19;24.20;99.90
55261;DHT22;41123;51.416;6.758;2022-07-09T09:22:46;24.50;99.90
55261;DHT22;41123;51.416;6.758;2022-07-09T09:25:19;24.50;99.90
55261;DHT22;41123;51.416;6.758;2022-07-09T09:27:56;24.30;99.90
55261;DHT22;41123;51.416;6.758;2022-07-09T09:30:22;24.70;99.90
55261;DHT22;41123;51.416;6.758;2022-07-09T09:33:02;24.90;99.90
55261;DHT22;41123;51.416;6.758;2022-07-09T09:35:29;25.00;99.90
55261;DHT22;41123;51.416;6.758;2022-07-09T09:37:56;24.90;99.90
55261;DHT22;41123;51.416;6.758;2022-07-09T09:40:22;24.70;99.90
55261;DHT22;41123;51.416;6.758;2022-07-09T09:42:50;25.20;99.90
55261;DHT22;41123;51.416;6.758;2022-07-09T09:45:16;25.40;99.60
55261;DHT22;41123;51.416;6.758;2022-07-09T09:47:50;25.50;99.80
55261;DHT22;41123;51.416;6.758;2022-07-09T09:50:24;25.70;99.50
55261;DHT22;41123;51.416;6.758;2022-07-09T09:52:51;25.50;99.40
55261;DHT22;41123;51.416;6.758;2022-07-09T09:55:18;25.20;99.70
55261;DHT22;41123;51.416;6.758;2022-07-09T09:57:44;25.00;99.90
55261;DHT22;41123;51.416;6.758;2022-07-09T10:00:14;25.00;99.40
55261;DHT22;41123;51.416;6.758;2022-07-09T10:02:45;25.00;99.70
55261;DHT22;41123;51.416;6.758;2022-07-09T10:05:12;25.00;99.60
55261;DHT22;41123;51.416;6.758;2022-07-09T10:07:39;24.90;99.50
55261;DHT22;41123;51.416;6.758;2022-07-09T10:10:05;25.00;99.50
55261;DHT22;41123;51.416;6.758;2022-07-09T10:12:36;25.00;99.30
55261;DHT22;41123;51.416;6.758;2022-07-09T10:15:08;24.70;99.70
55261;DHT22;41123;51.416;6.758;2022-07-09T10:17:44;25.20;99.20
55261;DHT22;41123;51.416;6.758;2022-07-09T10:20:09;25.30;99.30
55261;DHT22;41123;51.416;6.758;2022-07-09T10:22:38;25.30;99.30
55261;DHT22;41123;51.416;6.758;2022-07-09T10:25:06;25.30;99.30
55261;DHT22;41123;51.416;6.758;2022-07-09T10:27:46;25.60;99.10
55261;DHT22;41123;51.416;6.758;2022-07-09T10:38:11;25.30;98.60
55261;DHT22;41123;51.416;6.758;2022-07-09T10:40:39;27.20;99.20
55261;DHT22;41123;51.416;6.758;2022-07-09T10:43:05;25.40;98.60
55261;DHT22;41123;51.416;6.758;2022-07-09T10:45:39;25.50;98.70
55261;DHT22;41123;51.416;6.758;2022-07-09T10:48:06;25.50;98.60
55261;DHT22;41123;51.416;6.758;2022-07-09T10:50:35;25.90;98.30
55261;DHT22;41123;51.416;6.758;2022-07-09T10:53:02;25.90;98.20
55261;DHT22;41123;51.416;6.758;2022-07-09T10:55:29;25.80;97.80
55261;DHT22;41123;51.416;6.758;2022-07-09T10:57:56;25.90;98.20
55261;DHT22;41123;51.416;6.758;2022-07-09T11:00:23;26.00;98.00
55261;DHT22;41123;51.416;6.758;2022-07-09T11:03:01;25.90;97.90
55261;DHT22;41123;51.416;6.758;2022-07-09T11:05:29;25.50;98.30
55261;DHT22;41123;51.416;6.758;2022-07-09T11:08:06;25.70;98.20
55261;DHT22;41123;51.416;6.758;2022-07-09T11:10:36;26.10;97.90
55261;DHT22;41123;51.416;6.758;2022-07-09T11:13:04;25.50;98.00
55261;DHT22;41123;51.416;6.758;2022-07-09T11:15:31;25.80;98.10
55261;DHT22;41123;51.416;6.758;2022-07-09T11:18:05;25.90;98.10
55261;DHT22;41123;51.416;6.758;2022-07-09T11:20:36;27.30;99.00
55261;DHT22;41123;51.416;6.758;2022-07-09T11:23:02;25.60;98.70
55261;DHT22;41123;51.416;6.758;2022-07-09T11:25:28;25.70;98.30
55261;DHT22;41123;51.416;6.758;2022-07-09T11:27:58;25.70;98.30
55261;DHT22;41123;51.416;6.758;2022-07-09T11:30:25;25.70;98.20
55261;DHT22;41123;51.416;6.758;2022-07-09T11:32:52;25.70;98.40
55261;DHT22;41123;51.416;6.758;2022-07-09T11:35:30;25.90;98.60
55261;DHT22;41123;51.416;6.758;2022-07-09T11:38:04;26.10;98.40
55261;DHT22;41123;51.416;6.758;2022-07-09T11:40:32;26.50;98.10
55261;DHT22;41123;51.416;6.758;2022-07-09T11:42:58;26.20;98.30
55261;DHT22;41123;51.416;6.758;2022-07-09T11:45:28;26.00;98.60
55261;DHT22;41123;51.416;6.758;2022-07-09T11:48:08;25.90;98.70
55261;DHT22;41123;51.416;6.758;2022-07-09T11:50:42;25.90;98.60
55261;DHT22;41123;51.416;6.758;2022-07-09T11:53:24;26.10;98.60
55261;DHT22;41123;51.416;6.758;2022-07-09T11:55:59;27.90;99.10
55261;DHT22;41123;51.416;6.758;2022-07-09T11:58:28;26.60;98.50
55261;DHT22;41123;51.416;6.758;2022-07-09T12:00:53;26.70;98.40
55261;DHT22;41123;51.416;6.758;2022-07-09T12:03:27;26.50;98.50
55261;DHT22;41123;51.416;6.758;2022-07-09T12:05:53;26.10;98.70
55261;DHT22;41123;51.416;6.758;2022-07-09T12:08:27;26.40;98.70
55261;DHT22;41123;51.416;6.758;2022-07-09T12:10:54;26.40;98.70
55261;DHT22;41123;51.416;6.758;2022-07-09T12:13:20;26.30;98.70
55261;DHT22;41123;51.416;6.758;2022-07-09T12:15:46;26.10;98.70
55261;DHT22;41123;51.416;6.758;2022-07-09T12:18:11;25.90;98.70
55261;DHT22;41123;51.416;6.758;2022-07-09T12:20:37;25.90;98.90
55261;DHT22;41123;51.416;6.758;2022-07-09T12:23:02;25.70;99.00
55261;DHT22;41123;51.416;6.758;2022-07-09T12:25:28;25.50;99.10
55261;DHT22;41123;51.416;6.758;2022-07-09T12:27:54;25.50;99.30
55261;DHT22;41123;51.416;6.758;2022-07-09T12:30:19;25.50;99.40
55261;DHT22;41123;51.416;6.758;2022-07-09T12:32:46;25.20;99.40
55261;DHT22;41123;51.416;6.758;2022-07-09T12:35:12;25.00;99.40
55261;DHT22;41123;51.416;6.758;2022-07-09T12:37:38;24.90;99.70
55261;DHT22;41123;51.416;6.758;2022-07-09T12:40:07;24.70;99.60
55261;DHT22;41123;51.416;6.758;2022-07-09T12:42:33;23.90;99.90
55261;DHT22;41123;51.416;6.758;2022-07-09T12:44:59;23.60;99.90
55261;DHT22;41123;51.416;6.758;2022-07-09T12:47:25;23.50;99.90
55261;DHT22;41123;51.416;6.758;2022-07-09T12:49:51;23.30;99.90
55261;DHT22;41123;51.416;6.758;2022-07-09T12:52:16;23.00;99.90
55261;DHT22;41123;51.416;6.758;2022-07-09T12:54:42;22.70;99.90
55261;DHT22;41123;51.416;6.758;2022-07-09T12:57:08;23.00;99.90
55261;DHT22;41123;51.416;6.758;2022-07-09T12:59:34;23.40;99.90
55261;DHT22;41123;51.416;6.758;2022-07-09T13:02:00;23.50;99.90
55261;DHT22;41123;51.416;6.758;2022-07-09T13:04:26;23.70;99.90
55261;DHT22;41123;51.416;6.758;2022-07-09T13:06:52;23.60;99.90
55261;DHT22;41123;51.416;6.758;2022-07-09T13:09:18;24.50;99.90
55261;DHT22;41123;51.416;6.758;2022-07-09T13:11:44;23.40;99.90
55261;DHT22;41123;51.416;6.758;2022-07-09T13:14:10;22.70;99.90
55261;DHT22;41123;51.416;6.758;2022-07-09T13:16:36;24.00;99.90
55261;DHT22;41123;51.416;6.758;2022-07-09T13:19:02;24.10;99.90
55261;DHT22;41123;51.416;6.758;2022-07-09T13:21:27;24.10;99.90
55261;DHT22;41123;51.416;6.758;2022-07-09T13:23:55;24.20;99.90
55261;DHT22;41123;51.416;6.758;2022-07-09T13:26:21;24.30;99.90
55261;DHT22;41123;51.416;6.758;2022-07-09T13:28:46;24.30;99.90
55261;DHT22;41123;51.416;6.758;2022-07-09T13:31:12;24.30;99.90
55261;DHT22;41123;51.416;6.758;2022-07-09T13:33:38;24.50;99.90
55261;DHT22;41123;51.416;6.758;2022-07-09T13:36:04;24.80;99.90
55261;DHT22;41123;51.416;6.758;2022-07-09T13:38:31;25.00;99.90
55261;DHT22;41123;51.416;6.758;2022-07-09T13:40:57;27.10;99.90
55261;DHT22;41123;51.416;6.758;2022-07-09T13:43:23;24.90;99.90
55261;DHT22;41123;51.416;6.758;2022-07-09T13:45:56;25.00;99.90
55261;DHT22;41123;51.416;6.758;2022-07-09T13:48:23;24.90;99.90
55261;DHT22;41123;51.416;6.758;2022-07-09T13:50:49;24.90;99.90
55261;DHT22;41123;51.416;6.758;2022-07-09T13:53:14;24.90;99.90
55261;DHT22;41123;51.416;6.758;2022-07-09T13:55:40;25.20;99.90
55261;DHT22;41123;51.416;6.758;2022-07-09T13:58:06;25.20;99.90
55261;DHT22;41123;51.416;6.758;2022-07-09T14:00:32;25.10;99.90
55261;DHT22;41123;51.416;6.758;2022-07-09T14:02:58;25.00;99.90
55261;DHT22;41123;51.416;6.758;2022-07-09T14:05:23;25.00;99.90
55261;DHT22;41123;51.416;6.758;2022-07-09T14:07:49;25.20;99.90
55261;DHT22;41123;51.416;6.758;2022-07-09T14:10:15;25.30;99.20
55261;DHT22;41123;51.416;6.758;2022-07-09T14:12:41;25.50;98.60
55261;DHT22;41123;51.416;6.758;2022-07-09T14:15:07;25.50;98.50
55261;DHT22;41123;51.416;6.758;2022-07-09T14:17:32;25.40;98.30
55261;DHT22;41123;51.416;6.758;2022-07-09T14:19:58;25.50;98.30
55261;DHT22;41123;51.416;6.758;2022-07-09T14:22:25;25.70;98.10
55261;DHT22;41123;51.416;6.758;2022-07-09T14:24:50;25.60;98.10
55261;DHT22;41123;51.416;6.758;2022-07-09T14:27:16;25.40;98.50
55261;DHT22;41123;51.416;6.758;2022-07-09T14:29:43;25.20;98.30
55261;DHT22;41123;51.416;6.758;2022-07-09T14:32:09;25.20;98.00
55261;DHT22;41123;51.416;6.758;2022-07-09T14:34:35;25.00;97.60
55261;DHT22;41123;51.416;6.758;2022-07-09T14:37:01;24.80;97.60
55261;DHT22;41123;51.416;6.758;2022-07-09T14:39:27;25.00;97.60
55261;DHT22;41123;51.416;6.758;2022-07-09T14:41:53;25.10;97.30
55261;DHT22;41123;51.416;6.758;2022-07-09T14:44:18;25.60;97.10
55261;DHT22;41123;51.416;6.758;2022-07-09T14:46:44;25.50;97.10
55261;DHT22;41123;51.416;6.758;2022-07-09T14:49:10;25.40;97.20
55261;DHT22;41123;51.416;6.758;2022-07-09T14:51:37;25.20;96.60
55261;DHT22;41123;51.416;6.758;2022-07-09T14:54:03;25.20;96.90
55261;DHT22;41123;51.416;6.758;2022-07-09T14:56:28;26.40;97.20
55261;DHT22;41123;51.416;6.758;2022-07-09T14:58:54;25.20;96.50
55261;DHT22;41123;51.416;6.758;2022-07-09T15:01:20;25.30;96.40
55261;DHT22;41123;51.416;6.758;2022-07-09T15:03:46;25.60;96.30
55261;DHT22;41123;51.416;6.758;2022-07-09T15:06:12;25.70;96.30
55261;DHT22;41123;51.416;6.758;2022-07-09T15:08:37;25.60;96.20
55261;DHT22;41123;51.416;6.758;2022-07-09T15:11:03;25.30;96.00
55261;DHT22;41123;51.416;6.758;2022-07-09T15:13:29;25.30;96.10
55261;DHT22;41123;51.416;6.758;2022-07-09T15:15:55;25.40;96.00
55261;DHT22;41123;51.416;6.758;2022-07-09T15:18:21;25.20;95.90
55261;DHT22;41123;51.416;6.758;2022-07-09T15:20:47;25.10;95.70
55261;DHT22;41123;51.416;6.758;2022-07-09T15:23:13;25.10;95.70
55261;DHT22;41123;51.416;6.758;2022-07-09T15:25:38;24.50;95.50
55261;DHT22;41123;51.416;6.758;2022-07-09T15:28:05;25.60;95.50
55261;DHT22;41123;51.416;6.758;2022-07-09T15:30:31;25.90;95.30
55261;DHT22;41123;51.416;6.758;2022-07-09T15:32:57;25.90;94.90
55261;DHT22;41123;51.416;6.758;2022-07-09T15:35:22;25.60;95.40
55261;DHT22;41123;51.416;6.758;2022-07-09T15:37:50;25.40;95.40